Time;durP1;ratioP1;P1;durP2;ratioP2;P2;SDS_P1;SDS_P2;PMS_P1;PMS_P2;Temp;Humidity;BMP_temperature;BMP_pressure;BME280_temperature;BME280_humidity;BME280_pressure;Samples;Min_cycle;Max_cycle;Signal;HPM_P1;HPM_P2
2023/04/01 00:00:08;;;;;;;0.35;0.35;;;;;;;;;;4997104;28;20269;-48
2023/04/01 00:02:34;;;;;;;0.32;0.30;;;;;;;;;;4997468;28;20181;-48
2023/04/01 00:05:00;;;;;;;0.50;0.40;;;;;;;;;;4991003;28;20576;-48
2023/04/01 00:07:25;;;;;;;0.52;0.40;;;;;;;;;;4996595;28;20220;-48
2023/04/01 00:09:51;;;;;;;0.52;0.47;;;;;;;;;;4997132;28;20219;-49
2023/04/01 00:12:17;;;;;;;0.20;0.20;;;;;;;;;;4992039;28;20185;-49
2023/04/01 00:14:43;;;;;;;1.10;0.50;;;;;;;;;;4995389;28;20185;-49
2023/04/01 00:17:09;;;;;;;0.65;0.57;;;;;;;;;;4986706;28;20268;-49
2023/04/01 00:19:35;;;;;;;0.50;0.50;;;;;;;;;;4988557;28;20597;-49
2023/04/01 00:22:01;;;;;;;0.40;0.40;;;;;;;;;;4986961;28;20213;-49
2023/04/01 00:24:27;;;;;;;0.40;0.40;;;;;;;;;;4993683;28;20208;-48
2023/04/01 00:26:53;;;;;;;0.95;0.60;;;;;;;;;;4996589;28;20201;-49
2023/04/01 00:29:19;;;;;;;0.50;0.50;;;;;;;;;;4995503;28;20573;-49
2023/04/01 00:31:45;;;;;;;0.55;0.35;;;;;;;;;;4995713;28;20192;-48
2023/04/01 00:34:12;;;;;;;0.40;0.40;;;;;;;;;;4992947;28;20228;-48
2023/04/01 00:36:38;;;;;;;0.85;0.30;;;;;;;;;;4991050;28;20193;-48
2023/04/01 00:39:04;;;;;;;1.23;0.40;;;;;;;;;;4995008;28;20185;-48
2023/04/01 00:41:30;;;;;;;0.60;0.50;;;;;;;;;;4995608;28;20216;-48
2023/04/01 00:44:14;;;;;;;0.52;0.30;;;;;;;;;;4994574;28;20193;-48
2023/04/01 00:46:40;;;;;;;0.30;0.30;;;;;;;;;;4993792;28;20623;-49
2023/04/01 00:49:06;;;;;;;1.25;0.50;;;;;;;;;;4993569;28;20248;-48
2023/04/01 00:51:32;;;;;;;0.68;0.57;;;;;;;;;;4989825;28;20184;-48
2023/04/01 00:54:01;;;;;;;0.65;0.40;;;;;;;;;;4988573;28;20533;-48
2023/04/01 00:56:35;;;;;;;0.32;0.32;;;;;;;;;;4996869;28;20247;-48
2023/04/01 00:59:04;;;;;;;0.82;0.40;;;;;;;;;;4995909;28;20441;-48
2023/04/01 01:01:31;;;;;;;0.50;0.32;;;;;;;;;;4990835;28;20182;-48
2023/04/01 01:03:57;;;;;;;1.13;0.70;;;;;;;;;;4992520;28;20177;-48
2023/04/01 01:06:29;;;;;;;0.25;0.25;;;;;;;;;;4995583;28;20208;-48
2023/04/01 01:09:07;;;;;;;1.25;0.50;;;;;;;;;;4987996;28;20189;-48
2023/04/01 01:11:38;;;;;;;0.40;0.40;;;;;;;;;;4988998;28;20185;-48
2023/04/01 01:14:13;;;;;;;0.68;0.45;;;;;;;;;;4987986;28;20183;-48
2023/04/01 01:16:44;;;;;;;1.67;0.40;;;;;;;;;;4988192;28;20219;-48
2023/04/01 01:19:30;;;;;;;0.30;0.30;;;;;;;;;;4989726;28;20181;-48
2023/04/01 01:22:04;;;;;;;0.40;0.40;;;;;;;;;;4994363;28;20229;-48
2023/04/01 01:24:37;;;;;;;0.57;0.57;;;;;;;;;;4995157;28;20185;-48
2023/04/01 01:27:03;;;;;;;0.70;0.40;;;;;;;;;;4987889;28;20233;-48
2023/04/01 01:29:48;;;;;;;1.10;0.50;;;;;;;;;;4989965;28;20220;-48
2023/04/01 01:32:17;;;;;;;0.60;0.43;;;;;;;;;;4994276;28;20216;-49
2023/04/01 01:35:01;;;;;;;1.13;0.50;;;;;;;;;;4993502;28;20192;-48
2023/04/01 01:37:27;;;;;;;0.35;0.35;;;;;;;;;;4989129;28;20198;-48
2023/04/01 01:39:56;;;;;;;0.90;0.40;;;;;;;;;;4991616;28;20264;-48
2023/04/01 01:42:23;;;;;;;0.25;0.25;;;;;;;;;;4994497;28;20197;-48
2023/04/01 01:44:50;;;;;;;1.42;0.50;;;;;;;;;;4990642;28;20185;-48
2023/04/01 01:47:17;;;;;;;0.28;0.28;;;;;;;;;;4994186;28;20209;-49
2023/04/01 01:49:44;;;;;;;1.08;0.40;;;;;;;;;;4994113;28;20177;-49
2023/04/01 01:52:10;;;;;;;0.50;0.50;;;;;;;;;;4994008;28;20173;-49
2023/04/01 01:54:36;;;;;;;0.30;0.30;;;;;;;;;;4993987;28;20185;-49
2023/04/01 01:57:09;;;;;;;1.27;0.55;;;;;;;;;;4993583;28;20189;-49
2023/04/01 01:59:37;;;;;;;0.60;0.50;;;;;;;;;;4988873;28;20217;-49
2023/04/01 02:02:07;;;;;;;0.35;0.30;;;;;;;;;;4991521;28;20212;-49
2023/04/01 02:04:34;;;;;;;0.60;0.30;;;;;;;;;;4994360;28;20177;-49
2023/04/01 02:07:03;;;;;;;0.47;0.38;;;;;;;;;;4992200;28;20212;-49
2023/04/01 02:09:29;;;;;;;0.50;0.30;;;;;;;;;;4990360;28;20549;-49
2023/04/01 02:11:58;;;;;;;0.50;0.50;;;;;;;;;;4988238;28;20184;-49
2023/04/01 02:14:44;;;;;;;0.75;0.30;;;;;;;;;;4993524;28;20401;-49
2023/04/01 02:17:12;;;;;;;0.57;0.30;;;;;;;;;;4988371;28;20280;-49
2023/04/01 02:19:48;;;;;;;0.38;0.38;;;;;;;;;;4995272;28;20191;-49
2023/04/01 02:22:17;;;;;;;0.85;0.30;;;;;;;;;;4994306;28;20208;-49
2023/04/01 02:24:45;;;;;;;0.30;0.30;;;;;;;;;;4994866;28;20588;-49
2023/04/01 02:27:11;;;;;;;0.47;0.38;;;;;;;;;;4994462;28;20201;-49
2023/04/01 02:29:37;;;;;;;1.05;0.50;;;;;;;;;;4993081;28;20188;-49
2023/04/01 02:32:04;;;;;;;0.50;0.30;;;;;;;;;;4992156;28;20325;-49
2023/04/01 02:34:30;;;;;;;0.75;0.60;;;;;;;;;;4990885;28;20236;-49
2023/04/01 02:36:57;;;;;;;0.65;0.52;;;;;;;;;;4983186;28;20220;-49
2023/04/01 02:39:25;;;;;;;0.38;0.38;;;;;;;;;;4989824;28;20212;-48
2023/04/01 02:41:51;;;;;;;0.63;0.40;;;;;;;;;;4990116;28;20232;-48
2023/04/01 02:44:17;;;;;;;0.93;0.40;;;;;;;;;;4989513;28;20220;-49
2023/04/01 02:46:43;;;;;;;1.05;0.50;;;;;;;;;;4985665;28;20201;-49
2023/04/01 02:49:08;;;;;;;0.73;0.57;;;;;;;;;;4987442;28;20180;-49
2023/04/01 02:51:34;;;;;;;0.10;0.10;;;;;;;;;;4994737;28;20232;-48
2023/04/01 02:54:00;;;;;;;0.63;0.40;;;;;;;;;;4992148;28;20217;-48
2023/04/01 02:56:26;;;;;;;0.50;0.38;;;;;;;;;;4989641;28;20213;-49
2023/04/01 02:58:53;;;;;;;0.70;0.35;;;;;;;;;;4991749;28;20532;-48
2023/04/01 03:01:19;;;;;;;0.65;0.50;;;;;;;;;;4984084;28;20193;-48
2023/04/01 03:03:45;;;;;;;0.30;0.30;;;;;;;;;;4991871;28;20192;-48
2023/04/01 03:06:12;;;;;;;0.32;0.30;;;;;;;;;;4989624;28;20193;-48
2023/04/01 03:08:38;;;;;;;1.10;0.40;;;;;;;;;;4986201;28;20180;-48
2023/04/01 03:11:05;;;;;;;0.70;0.30;;;;;;;;;;4993683;28;20797;-48
2023/04/01 03:13:30;;;;;;;0.55;0.40;;;;;;;;;;4988962;28;20181;-48
2023/04/01 03:15:56;;;;;;;0.20;0.20;;;;;;;;;;4993165;28;20192;-48
2023/04/01 03:18:22;;;;;;;0.43;0.20;;;;;;;;;;4984333;28;20367;-49
2023/04/01 03:20:48;;;;;;;0.75;0.30;;;;;;;;;;4989999;28;20193;-49
2023/04/01 03:23:17;;;;;;;0.70;0.30;;;;;;;;;;4985937;28;20200;-49
2023/04/01 03:25:42;;;;;;;0.32;0.22;;;;;;;;;;4994413;28;20238;-49
2023/04/01 03:28:08;;;;;;;0.93;0.43;;;;;;;;;;4993927;28;20461;-49
2023/04/01 03:30:34;;;;;;;0.40;0.30;;;;;;;;;;4993722;28;20197;-48
2023/04/01 03:33:01;;;;;;;0.32;0.30;;;;;;;;;;4992363;28;20231;-49
2023/04/01 03:35:27;;;;;;;0.80;0.50;;;;;;;;;;4992043;28;20184;-48
2023/04/01 03:37:53;;;;;;;1.00;0.57;;;;;;;;;;4994047;28;20220;-49
2023/04/01 03:40:19;;;;;;;0.52;0.47;;;;;;;;;;4994217;28;20182;-48
2023/04/01 03:42:45;;;;;;;0.70;0.50;;;;;;;;;;4993895;28;20204;-48
2023/04/01 03:45:14;;;;;;;0.45;0.25;;;;;;;;;;4999636;28;20181;-49
2023/04/01 03:47:40;;;;;;;0.45;0.38;;;;;;;;;;4987309;28;20192;-49
2023/04/01 03:50:07;;;;;;;1.05;0.30;;;;;;;;;;4994462;28;20181;-49
2023/04/01 03:52:34;;;;;;;0.75;0.20;;;;;;;;;;4993430;28;20453;-48
2023/04/01 03:55:00;;;;;;;0.30;0.20;;;;;;;;;;4994752;28;20212;-48
2023/04/01 03:57:26;;;;;;;1.50;0.40;;;;;;;;;;4994215;28;20217;-49
2023/04/01 03:59:52;;;;;;;0.63;0.40;;;;;;;;;;4990348;28;20577;-48
2023/04/01 04:02:18;;;;;;;0.25;0.25;;;;;;;;;;4991053;28;20178;-48
2023/04/01 04:04:44;;;;;;;0.63;0.15;;;;;;;;;;4993474;28;20204;-49
2023/04/01 04:07:10;;;;;;;0.50;0.40;;;;;;;;;;4994063;28;20512;-48
2023/04/01 04:09:36;;;;;;;0.57;0.35;;;;;;;;;;4992038;28;20276;-48
2023/04/01 04:12:02;;;;;;;0.20;0.20;;;;;;;;;;4994060;28;20178;-49
2023/04/01 04:14:28;;;;;;;1.20;0.30;;;;;;;;;;4994733;28;20556;-48
2023/04/01 04:16:54;;;;;;;0.25;0.25;;;;;;;;;;4995409;28;20216;-48
2023/04/01 04:19:20;;;;;;;0.28;0.28;;;;;;;;;;4996474;28;20185;-48
2023/04/01 04:21:46;;;;;;;0.40;0.40;;;;;;;;;;4996218;28;20680;-48
2023/04/01 04:24:12;;;;;;;1.48;0.40;;;;;;;;;;4997245;28;20268;-48
2023/04/01 04:26:38;;;;;;;0.40;0.40;;;;;;;;;;4996823;28;20311;-48
2023/04/01 04:29:03;;;;;;;1.92;0.40;;;;;;;;;;4995994;28;20549;-48
2023/04/01 04:31:29;;;;;;;0.50;0.40;;;;;;;;;;4991779;28;20195;-48
2023/04/01 04:33:56;;;;;;;0.28;0.28;;;;;;;;;;4994909;28;20212;-48
2023/04/01 04:36:22;;;;;;;1.08;0.40;;;;;;;;;;4987652;28;20220;-49
2023/04/01 04:38:48;;;;;;;0.75;0.43;;;;;;;;;;4987919;28;20244;-48
2023/04/01 04:41:15;;;;;;;1.35;0.50;;;;;;;;;;4988837;28;20181;-48
2023/04/01 04:43:41;;;;;;;4.22;0.45;;;;;;;;;;4995398;28;20512;-48
2023/04/01 04:46:08;;;;;;;0.95;0.60;;;;;;;;;;4990757;28;20216;-48
2023/04/01 04:48:34;;;;;;;3.70;0.93;;;;;;;;;;4995150;28;20195;-48
2023/04/01 04:51:00;;;;;;;4.28;1.00;;;;;;;;;;4996641;28;20181;-48
2023/04/01 04:53:26;;;;;;;7.10;1.60;;;;;;;;;;4989644;28;20170;-48
2023/04/01 04:55:52;;;;;;;3.45;0.95;;;;;;;;;;4995641;28;20189;-48
2023/04/01 04:58:18;;;;;;;4.80;1.17;;;;;;;;;;4994449;28;20209;-48
2023/04/01 05:00:44;;;;;;;6.68;1.08;;;;;;;;;;4993369;28;20193;-48
2023/04/01 05:03:10;;;;;;;5.82;1.13;;;;;;;;;;4995493;28;20522;-49
2023/04/01 05:05:36;;;;;;;3.42;1.10;;;;;;;;;;4993808;28;20216;-48
2023/04/01 05:08:02;;;;;;;3.55;1.23;;;;;;;;;;4990855;28;20185;-48
2023/04/01 05:10:28;;;;;;;4.25;1.33;;;;;;;;;;4994803;28;20177;-48
2023/04/01 05:12:54;;;;;;;3.97;1.23;;;;;;;;;;4988828;28;20204;-48
2023/04/01 05:15:20;;;;;;;8.88;1.40;;;;;;;;;;4996399;28;20192;-48
2023/04/01 05:17:46;;;;;;;6.18;1.08;;;;;;;;;;4995377;28;20308;-48
2023/04/01 05:20:13;;;;;;;8.57;1.35;;;;;;;;;;4995528;28;20697;-49
2023/04/01 05:22:39;;;;;;;4.40;1.33;;;;;;;;;;4992897;28;20177;-49
2023/04/01 05:25:05;;;;;;;6.22;1.50;;;;;;;;;;4993758;28;20501;-49
2023/04/01 05:27:31;;;;;;;7.15;1.42;;;;;;;;;;4993111;28;20475;-48
2023/04/01 05:29:57;;;;;;;5.93;1.10;;;;;;;;;;4994862;28;20197;-48
2023/04/01 05:32:23;;;;;;;10.07;1.65;;;;;;;;;;4994328;28;20185;-48
2023/04/01 05:34:52;;;;;;;5.90;0.93;;;;;;;;;;4995752;28;20182;-48
2023/04/01 05:37:18;;;;;;;5.47;1.20;;;;;;;;;;4992331;28;20204;-48
2023/04/01 05:39:44;;;;;;;2.65;1.10;;;;;;;;;;4993991;28;20204;-48
2023/04/01 05:42:10;;;;;;;4.32;1.00;;;;;;;;;;4993641;28;20181;-48
2023/04/01 05:44:36;;;;;;;5.00;0.88;;;;;;;;;;4992131;28;20540;-48
2023/04/01 05:47:03;;;;;;;2.95;0.63;;;;;;;;;;4993662;28;20212;-49
2023/04/01 05:49:30;;;;;;;3.58;1.23;;;;;;;;;;4992999;28;20440;-49
2023/04/01 05:51:56;;;;;;;4.20;0.85;;;;;;;;;;4994787;28;20205;-49
2023/04/01 05:54:22;;;;;;;2.03;1.00;;;;;;;;;;4995289;28;20181;-48
2023/04/01 05:56:49;;;;;;;2.22;0.80;;;;;;;;;;4990435;28;20193;-49
2023/04/01 05:59:15;;;;;;;1.10;0.70;;;;;;;;;;4996074;28;20455;-49
2023/04/01 06:01:40;;;;;;;6.30;1.10;;;;;;;;;;4994838;28;20181;-48
2023/04/01 06:04:06;;;;;;;1.55;0.65;;;;;;;;;;4988646;28;20551;-48
2023/04/01 06:06:33;;;;;;;2.55;0.95;;;;;;;;;;4991327;28;20551;-48
2023/04/01 06:09:07;;;;;;;4.55;1.05;;;;;;;;;;4994224;28;20192;-48
2023/04/01 06:11:40;;;;;;;5.25;0.95;;;;;;;;;;4990215;28;20208;-48
2023/04/01 06:14:10;;;;;;;1.67;0.80;;;;;;;;;;4993099;28;20228;-48
2023/04/01 06:16:54;;;;;;;3.78;0.88;;;;;;;;;;4979623;28;20198;-48
2023/04/01 06:19:30;;;;;;;2.80;0.73;;;;;;;;;;4983881;28;20666;-48
2023/04/01 06:22:11;;;;;;;4.07;1.10;;;;;;;;;;4990919;28;20188;-48
2023/04/01 06:24:56;;;;;;;2.42;0.70;;;;;;;;;;4993902;28;20217;-48
2023/04/01 06:27:30;;;;;;;4.38;0.80;;;;;;;;;;4994247;28;20208;-48
2023/04/01 06:30:01;;;;;;;0.98;0.60;;;;;;;;;;4992972;28;20189;-48
2023/04/01 06:32:50;;;;;;;1.77;0.98;;;;;;;;;;4988906;28;20181;-48
2023/04/01 06:35:20;;;;;;;1.08;0.60;;;;;;;;;;4987996;28;20436;-48
2023/04/01 06:38:06;;;;;;;2.50;1.10;;;;;;;;;;4991554;28;20205;-49
2023/04/01 06:40:35;;;;;;;3.17;0.85;;;;;;;;;;4995261;28;20196;-48
2023/04/01 06:43:01;;;;;;;3.13;0.98;;;;;;;;;;4991866;28;20224;-48
2023/04/01 06:45:45;;;;;;;1.65;0.57;;;;;;;;;;4992729;28;20489;-48
2023/04/01 06:48:20;;;;;;;4.80;0.80;;;;;;;;;;4994316;28;20541;-49
2023/04/01 06:50:49;;;;;;;2.92;0.70;;;;;;;;;;4993559;28;20204;-48
2023/04/01 06:53:22;;;;;;;2.40;0.70;;;;;;;;;;4993765;28;20207;-48
2023/04/01 06:55:51;;;;;;;2.88;0.90;;;;;;;;;;4993181;28;20220;-48
2023/04/01 06:58:21;;;;;;;2.53;0.80;;;;;;;;;;4987410;28;20185;-48
2023/04/01 07:00:49;;;;;;;2.42;0.90;;;;;;;;;;4992510;28;20251;-48
2023/04/01 07:03:30;;;;;;;1.75;0.80;;;;;;;;;;4991326;28;20189;-48
2023/04/01 07:05:58;;;;;;;1.25;0.50;;;;;;;;;;4993745;28;20579;-48
2023/04/01 07:08:26;;;;;;;2.13;0.50;;;;;;;;;;4992765;28;20469;-48
2023/04/01 07:10:56;;;;;;;2.85;0.73;;;;;;;;;;4994526;28;20169;-48
2023/04/01 07:13:41;;;;;;;1.77;0.70;;;;;;;;;;4984150;28;20185;-48
2023/04/01 07:16:07;;;;;;;3.40;0.70;;;;;;;;;;4988640;28;20195;-53
2023/04/01 07:18:40;;;;;;;1.67;0.60;;;;;;;;;;4992794;28;20177;-48
2023/04/01 07:21:10;;;;;;;3.40;0.50;;;;;;;;;;4985306;28;20196;-48
2023/04/01 07:23:42;;;;;;;0.82;0.47;;;;;;;;;;4989403;28;20312;-49
2023/04/01 07:26:23;;;;;;;3.83;0.85;;;;;;;;;;4986403;28;20205;-49
2023/04/01 07:28:49;;;;;;;1.55;0.77;;;;;;;;;;4989718;28;20232;-49
2023/04/01 07:31:24;;;;;;;4.82;0.60;;;;;;;;;;4990181;28;20488;-48
2023/04/01 07:34:10;;;;;;;1.50;0.70;;;;;;;;;;4991703;28;20255;-49
2023/04/01 07:36:47;;;;;;;2.72;0.50;;;;;;;;;;4993356;28;20189;-48
2023/04/01 07:39:22;;;;;;;3.03;0.70;;;;;;;;;;4992261;28;20195;-48
2023/04/01 07:41:51;;;;;;;1.90;0.80;;;;;;;;;;4993809;28;20192;-48
2023/04/01 07:44:20;;;;;;;0.52;0.52;;;;;;;;;;4994428;28;20199;-48
2023/04/01 07:47:04;;;;;;;2.08;0.50;;;;;;;;;;4994170;28;20209;-48
2023/04/01 07:49:35;;;;;;;1.77;0.60;;;;;;;;;;4997166;28;20185;-48
2023/04/01 07:52:22;;;;;;;2.83;0.60;;;;;;;;;;4996270;28;20247;-49
2023/04/01 07:54:53;;;;;;;2.15;1.02;;;;;;;;;;4997815;28;20564;-48
2023/04/01 07:57:21;;;;;;;1.85;0.70;;;;;;;;;;4998075;28;20228;-48
2023/04/01 08:00:07;;;;;;;2.65;1.02;;;;;;;;;;4997823;28;20177;-48
2023/04/01 08:02:32;;;;;;;3.22;0.80;;;;;;;;;;4997099;28;20573;-48
2023/04/01 08:05:09;;;;;;;3.75;0.80;;;;;;;;;;4997630;28;20280;-48
2023/04/01 08:07:45;;;;;;;1.40;0.60;;;;;;;;;;4991165;28;20221;-48
2023/04/01 08:10:19;;;;;;;3.60;0.70;;;;;;;;;;4987420;28;20208;-48
2023/04/01 08:13:03;;;;;;;2.35;0.90;;;;;;;;;;4994323;28;20212;-49
2023/04/01 08:15:48;;;;;;;3.17;0.80;;;;;;;;;;4998111;28;20177;-48
2023/04/01 08:18:26;;;;;;;2.88;0.73;;;;;;;;;;4986347;28;20208;-49
2023/04/01 08:20:56;;;;;;;1.30;0.70;;;;;;;;;;4996751;28;20231;-49
2023/04/01 08:23:33;;;;;;;3.60;0.70;;;;;;;;;;4990418;28;20182;-49
2023/04/01 08:26:13;;;;;;;1.13;0.73;;;;;;;;;;4995392;28;20631;-48
2023/04/01 08:28:42;;;;;;;1.75;0.50;;;;;;;;;;4995726;28;20790;-48
2023/04/01 08:31:14;;;;;;;2.17;0.60;;;;;;;;;;4997117;28;20565;-48
2023/04/01 08:33:41;;;;;;;2.60;0.60;;;;;;;;;;4988029;28;20182;-48
2023/04/01 08:36:10;;;;;;;2.53;0.80;;;;;;;;;;4996311;28;20192;-48
2023/04/01 08:38:47;;;;;;;0.85;0.75;;;;;;;;;;4995119;28;20513;-48
2023/04/01 08:41:23;;;;;;;6.65;1.30;;;;;;;;;;4994702;28;20185;-48
2023/04/01 08:44:16;;;;;;;2.35;1.20;;;;;;;;;;4992473;28;20197;-48
2023/04/01 08:47:00;;;;;;;4.07;1.17;;;;;;;;;;4980693;28;20217;-49
2023/04/01 08:49:34;;;;;;;3.55;1.67;;;;;;;;;;5007406;28;20189;-49
2023/04/01 08:52:19;;;;;;;4.63;1.70;;;;;;;;;;4992768;28;20563;-49
2023/04/01 08:55:03;;;;;;;3.92;1.60;;;;;;;;;;4983759;28;20189;-49
2023/04/01 08:57:37;;;;;;;4.18;1.42;;;;;;;;;;4993952;28;20200;-49
2023/04/01 09:00:19;;;;;;;3.33;1.55;;;;;;;;;;4996126;28;20192;-49
2023/04/01 09:02:58;;;;;;;2.40;1.55;;;;;;;;;;4989757;28;20189;-49
2023/04/01 09:05:48;;;;;;;2.58;1.40;;;;;;;;;;4996205;28;20464;-49
2023/04/01 09:08:26;;;;;;;2.92;1.50;;;;;;;;;;4990122;28;20227;-49
2023/04/01 09:11:04;;;;;;;1.50;1.20;;;;;;;;;;4986494;28;20578;-49
2023/04/01 09:13:42;;;;;;;3.92;1.67;;;;;;;;;;4990161;28;20218;-48
2023/04/01 09:16:26;;;;;;;1.70;1.13;;;;;;;;;;4991153;28;20197;-48
2023/04/01 09:19:05;;;;;;;1.02;0.90;;;;;;;;;;4993037;28;20200;-48
2023/04/01 09:21:30;;;;;;;2.10;1.33;;;;;;;;;;4996963;28;20195;-48
2023/04/01 09:23:59;;;;;;;3.95;1.50;;;;;;;;;;4985609;28;20193;-48
2023/04/01 09:26:43;;;;;;;3.33;1.20;;;;;;;;;;4988841;28;20227;-48
2023/04/01 09:29:28;;;;;;;2.05;1.10;;;;;;;;;;4989568;28;20196;-48
2023/04/01 09:32:12;;;;;;;1.52;1.20;;;;;;;;;;4995014;28;20185;-48
2023/04/01 09:34:49;;;;;;;2.10;1.05;;;;;;;;;;4996039;28;20181;-48
2023/04/01 09:37:21;;;;;;;3.60;1.25;;;;;;;;;;4985412;28;20188;-48
2023/04/01 09:39:52;;;;;;;4.38;1.20;;;;;;;;;;4993318;28;20242;-49
2023/04/01 09:42:32;;;;;;;2.60;1.13;;;;;;;;;;4991061;28;20193;-49
2023/04/01 09:45:00;;;;;;;2.03;1.20;;;;;;;;;;4996401;28;20192;-49
2023/04/01 09:47:37;;;;;;;2.13;1.08;;;;;;;;;;4995202;28;20213;-49
2023/04/01 09:50:06;;;;;;;2.00;1.02;;;;;;;;;;4994018;28;20185;-49
2023/04/01 09:52:32;;;;;;;3.33;1.27;;;;;;;;;;4995982;28;20200;-49
2023/04/01 09:55:07;;;;;;;2.15;1.25;;;;;;;;;;4996016;28;20271;-48
2023/04/01 09:57:51;;;;;;;3.88;1.05;;;;;;;;;;4994443;28;20190;-48
2023/04/01 10:00:30;;;;;;;3.33;1.02;;;;;;;;;;4995785;28;21025;-48
2023/04/01 10:03:08;;;;;;;1.40;0.80;;;;;;;;;;4994926;28;20547;-48
2023/04/01 10:05:34;;;;;;;1.67;1.05;;;;;;;;;;4992658;28;20280;-48
2023/04/01 10:08:20;;;;;;;1.48;0.90;;;;;;;;;;4990579;28;20181;-48
2023/04/01 10:10:49;;;;;;;3.13;0.95;;;;;;;;;;4993590;28;20204;-48
2023/04/01 10:13:34;;;;;;;3.05;1.17;;;;;;;;;;4994220;28;20196;-48
2023/04/01 10:16:18;;;;;;;10.40;1.13;;;;;;;;;;4992079;28;20185;-48
2023/04/01 10:18:53;;;;;;;2.40;0.80;;;;;;;;;;4985216;28;20233;-48
2023/04/01 10:21:21;;;;;;;4.20;1.30;;;;;;;;;;4990763;28;20207;-49
2023/04/01 10:24:06;;;;;;;4.72;1.02;;;;;;;;;;4988818;28;20197;-48
2023/04/01 10:26:41;;;;;;;2.90;1.00;;;;;;;;;;4994212;28;20201;-49
2023/04/01 10:29:16;;;;;;;1.92;0.80;;;;;;;;;;4987262;28;20219;-48
2023/04/01 10:31:55;;;;;;;2.53;0.90;;;;;;;;;;4992311;28;20600;-48
2023/04/01 10:34:24;;;;;;;4.07;0.70;;;;;;;;;;4989394;28;20191;-49
2023/04/01 10:36:53;;;;;;;3.33;1.20;;;;;;;;;;4985964;28;20185;-49
2023/04/01 10:39:38;;;;;;;2.58;1.10;;;;;;;;;;4990703;28;20190;-48
2023/04/01 10:42:12;;;;;;;3.65;1.20;;;;;;;;;;4994591;28;20425;-48
2023/04/01 10:44:53;;;;;;;2.72;1.08;;;;;;;;;;4990705;28;20192;-49
2023/04/01 10:47:26;;;;;;;0.95;0.80;;;;;;;;;;4990598;28;20208;-49
2023/04/01 10:50:10;;;;;;;4.50;0.85;;;;;;;;;;4992525;28;20195;-49
2023/04/01 10:52:49;;;;;;;0.82;0.75;;;;;;;;;;4993658;28;20192;-48
2023/04/01 10:55:33;;;;;;;3.10;1.08;;;;;;;;;;4994198;28;20191;-49
2023/04/01 10:58:14;;;;;;;1.23;0.80;;;;;;;;;;4994048;28;20180;-49
2023/04/01 11:00:58;;;;;;;1.25;0.80;;;;;;;;;;4991146;28;20198;-49
2023/04/01 11:03:24;;;;;;;1.25;0.70;;;;;;;;;;4982935;28;20664;-49
2023/04/01 11:06:08;;;;;;;2.33;0.90;;;;;;;;;;4994418;28;20213;-49
2023/04/01 11:08:53;;;;;;;0.68;0.68;;;;;;;;;;4992285;28;20184;-49
2023/04/01 11:11:47;;;;;;;2.25;0.80;;;;;;;;;;4992105;28;20200;-49
2023/04/01 11:14:13;;;;;;;0.77;0.60;;;;;;;;;;4990056;28;20287;-49
2023/04/01 11:16:57;;;;;;;2.03;0.98;;;;;;;;;;4987186;28;20385;-49
2023/04/01 11:19:42;;;;;;;1.20;0.60;;;;;;;;;;4984335;28;20196;-49
2023/04/01 11:22:17;;;;;;;2.22;0.77;;;;;;;;;;4992001;28;20610;-49
2023/04/01 11:25:06;;;;;;;0.88;0.47;;;;;;;;;;4992284;28;20188;-49
2023/04/01 11:27:58;;;;;;;3.08;1.02;;;;;;;;;;4992414;28;20201;-49
2023/04/01 11:30:43;;;;;;;1.10;0.60;;;;;;;;;;4988080;28;20196;-49
2023/04/01 11:33:14;;;;;;;3.38;1.00;;;;;;;;;;4987469;28;20256;-49
2023/04/01 11:36:06;;;;;;;3.05;0.80;;;;;;;;;;4989894;28;20185;-49
2023/04/01 11:38:38;;;;;;;1.90;1.15;;;;;;;;;;4991173;28;20197;-49
2023/04/01 11:41:23;;;;;;;3.38;0.80;;;;;;;;;;4993511;28;20403;-49
2023/04/01 11:43:58;;;;;;;2.33;0.90;;;;;;;;;;4987082;28;20192;-49
2023/04/01 11:46:28;;;;;;;4.07;1.08;;;;;;;;;;4989997;28;20492;-49
2023/04/01 11:48:57;;;;;;;1.55;0.60;;;;;;;;;;4992605;28;20185;-49
2023/04/01 11:51:42;;;;;;;1.55;0.82;;;;;;;;;;4994687;28;20182;-49
2023/04/01 11:54:16;;;;;;;2.83;0.77;;;;;;;;;;4988242;28;20848;-49
2023/04/01 11:57:01;;;;;;;2.40;0.65;;;;;;;;;;4993802;28;20196;-49
2023/04/01 11:59:48;;;;;;;2.58;0.75;;;;;;;;;;4988804;28;20212;-49
2023/04/01 12:02:33;;;;;;;1.98;0.80;;;;;;;;;;4982144;28;20247;-49
2023/04/01 12:04:59;;;;;;;2.17;0.80;;;;;;;;;;4993656;28;20195;-49
2023/04/01 12:07:45;;;;;;;1.98;1.02;;;;;;;;;;4992387;28;20209;-49
2023/04/01 12:10:19;;;;;;;2.33;0.60;;;;;;;;;;4994251;28;20248;-49
2023/04/01 12:13:05;;;;;;;1.88;0.52;;;;;;;;;;4991307;28;20252;-49
2023/04/01 12:15:43;;;;;;;1.48;0.68;;;;;;;;;;4986909;28;20433;-49
2023/04/01 12:18:12;;;;;;;2.00;0.68;;;;;;;;;;4990395;28;20191;-49
2023/04/01 12:20:47;;;;;;;1.38;0.57;;;;;;;;;;4991945;28;20212;-49
2023/04/01 12:23:20;;;;;;;0.82;0.60;;;;;;;;;;4980799;28;20185;-49
2023/04/01 12:25:56;;;;;;;2.88;0.80;;;;;;;;;;4993336;28;20185;-49
2023/04/01 12:28:40;;;;;;;2.35;0.50;;;;;;;;;;4987984;28;20564;-49
2023/04/01 12:31:23;;;;;;;2.67;0.90;;;;;;;;;;4994029;28;20181;-49
2023/04/01 12:33:58;;;;;;;8.30;1.13;;;;;;;;;;4979922;28;20177;-48
2023/04/01 12:36:35;;;;;;;3.17;0.73;;;;;;;;;;4988461;28;20188;-49
2023/04/01 12:39:18;;;;;;;7.70;1.20;;;;;;;;;;4991102;28;20559;-49
2023/04/01 12:41:59;;;;;;;4.55;0.85;;;;;;;;;;4989066;28;20212;-49
2023/04/01 12:44:35;;;;;;;7.55;2.10;;;;;;;;;;4989978;28;20212;-49
2023/04/01 12:47:19;;;;;;;6.50;2.22;;;;;;;;;;4995395;28;20266;-49
2023/04/01 12:49:48;;;;;;;7.03;1.90;;;;;;;;;;4994941;28;20181;-48
2023/04/01 12:52:19;;;;;;;11.23;2.63;;;;;;;;;;4996174;28;20196;-48
2023/04/01 12:55:09;;;;;;;6.90;1.58;;;;;;;;;;4996212;28;20508;-48
2023/04/01 12:57:53;;;;;;;6.80;1.80;;;;;;;;;;4996216;28;20181;-49
2023/04/01 13:00:44;;;;;;;4.65;1.70;;;;;;;;;;4985292;28;20192;-49
2023/04/01 13:03:18;;;;;;;5.10;1.60;;;;;;;;;;4984871;28;20193;-48
2023/04/01 13:06:01;;;;;;;11.32;2.13;;;;;;;;;;4996656;28;20204;-48
2023/04/01 13:08:30;;;;;;;12.77;2.17;;;;;;;;;;4996033;28;20440;-48
2023/04/01 13:11:10;;;;;;;7.78;1.83;;;;;;;;;;4996478;28;20259;-49
2023/04/01 13:13:54;;;;;;;5.20;1.73;;;;;;;;;;4989939;28;20610;-49
2023/04/01 13:16:28;;;;;;;6.60;2.00;;;;;;;;;;4986756;28;20211;-49
2023/04/01 13:18:59;;;;;;;5.38;1.70;;;;;;;;;;4993586;28;20185;-49
2023/04/01 13:21:39;;;;;;;4.78;1.58;;;;;;;;;;4996835;28;20237;-49
2023/04/01 13:24:11;;;;;;;7.65;1.75;;;;;;;;;;4988120;28;20189;-49
2023/04/01 13:26:43;;;;;;;3.42;1.30;;;;;;;;;;4996037;28;20219;-49
2023/04/01 13:29:17;;;;;;;4.28;1.30;;;;;;;;;;4993833;28;20556;-49
2023/04/01 13:32:06;;;;;;;4.78;1.40;;;;;;;;;;4991475;28;20236;-49
2023/04/01 13:34:41;;;;;;;4.45;1.48;;;;;;;;;;4995190;28;20539;-49
2023/04/01 13:37:16;;;;;;;3.85;1.20;;;;;;;;;;4988991;28;20214;-49
2023/04/01 13:39:42;;;;;;;3.08;1.27;;;;;;;;;;4991408;28;20195;-49
2023/04/01 13:42:18;;;;;;;2.72;1.10;;;;;;;;;;4994212;28;20185;-49
2023/04/01 13:44:50;;;;;;;4.50;1.38;;;;;;;;;;4995490;28;20228;-48
2023/04/01 13:47:34;;;;;;;3.08;1.27;;;;;;;;;;4993880;28;20550;-48
2023/04/01 13:50:07;;;;;;;3.40;1.23;;;;;;;;;;4994109;28;20192;-49
2023/04/01 13:52:52;;;;;;;2.03;1.17;;;;;;;;;;4994641;28;20208;-49
2023/04/01 13:55:19;;;;;;;4.07;1.40;;;;;;;;;;4994452;28;20492;-49
2023/04/01 13:58:05;;;;;;;2.20;1.20;;;;;;;;;;4990060;28;20210;-49
2023/04/01 14:00:31;;;;;;;4.43;1.02;;;;;;;;;;4988786;28;20195;-49
2023/04/01 14:03:00;;;;;;;2.50;1.08;;;;;;;;;;4993098;28;20458;-49
2023/04/01 14:05:42;;;;;;;1.13;0.80;;;;;;;;;;4994856;28;20192;-49
2023/04/01 14:08:15;;;;;;;2.00;0.90;;;;;;;;;;4992000;28;20178;-49
2023/04/01 14:10:57;;;;;;;1.60;1.10;;;;;;;;;;4990989;28;20255;-48
2023/04/01 14:13:27;;;;;;;2.67;0.85;;;;;;;;;;4982525;28;20188;-48
2023/04/01 14:15:53;;;;;;;2.60;1.00;;;;;;;;;;4995610;28;20393;-48
2023/04/01 14:18:28;;;;;;;1.42;1.10;;;;;;;;;;4994755;28;20294;-49
2023/04/01 14:20:54;;;;;;;4.20;0.98;;;;;;;;;;4994206;28;20250;-49
2023/04/01 14:23:26;;;;;;;1.48;1.17;;;;;;;;;;4989464;28;20197;-49
2023/04/01 14:26:11;;;;;;;2.30;0.90;;;;;;;;;;4991775;28;20255;-49
2023/04/01 14:28:45;;;;;;;1.85;0.65;;;;;;;;;;4989356;28;20457;-49
2023/04/01 14:31:30;;;;;;;2.20;0.75;;;;;;;;;;4995785;28;20176;-49
2023/04/01 14:34:05;;;;;;;1.67;0.70;;;;;;;;;;4994005;28;20400;-49
2023/04/01 14:36:53;;;;;;;0.77;0.60;;;;;;;;;;4992280;28;20272;-49
2023/04/01 14:39:38;;;;;;;1.48;0.70;;;;;;;;;;4985610;28;20196;-49
2023/04/01 14:42:14;;;;;;;2.47;1.13;;;;;;;;;;4988975;28;20185;-49
2023/04/01 14:44:58;;;;;;;2.03;0.70;;;;;;;;;;4994511;28;20263;-49
2023/04/01 14:47:28;;;;;;;0.77;0.65;;;;;;;;;;4987697;28;20616;-48
2023/04/01 14:50:03;;;;;;;1.00;0.50;;;;;;;;;;4994663;28;20198;-48
2023/04/01 14:52:34;;;;;;;0.98;0.63;;;;;;;;;;4994017;28;20268;-48
2023/04/01 14:55:00;;;;;;;1.25;0.80;;;;;;;;;;4992752;28;20232;-48
2023/04/01 14:57:30;;;;;;;1.02;0.50;;;;;;;;;;4993239;28;20192;-48
2023/04/01 15:00:14;;;;;;;2.40;1.02;;;;;;;;;;4994881;28;20609;-48
2023/04/01 15:03:03;;;;;;;0.77;0.63;;;;;;;;;;4991596;28;20263;-48
2023/04/01 15:05:32;;;;;;;2.55;0.60;;;;;;;;;;4989657;28;20184;-48
2023/04/01 15:08:19;;;;;;;1.20;0.70;;;;;;;;;;4982912;28;20205;-49
2023/04/01 15:10:54;;;;;;;0.60;0.60;;;;;;;;;;4990989;28;20169;-49
2023/04/01 15:13:29;;;;;;;2.17;0.90;;;;;;;;;;4984351;28;20176;-49
2023/04/01 15:16:14;;;;;;;2.20;0.70;;;;;;;;;;4988523;28;20173;-49